Cordell, OK

12:46 PM CST on December 21, 2014 (GMT -0600)
Clinton-Sherman | Change Station
CLOSE
Current Station
Airport
Location: Clinton-Sherman,
Elevation: 1923 ft
Nearby Weather Stations

Elev 1923 ft 35.34 °N, 99.20 °W | Updated 53 minutes ago

Overcast
Overcast
46 °F
Feels Like 39 °F
N
16
Wind Variable Wind from South

Today
High -- | Low -- °F
--% Chance of Precip.
Yesterday
High -- | Low -- °F
Precip. -- in
7:40 AM 5:27 PM
Waning Crescent, 0% visible
Pressure 29.86 in
Visibility 5.0 miles
Clouds Overcast 500 ft
Windchill 39 °F
Dew Point 43 °F
Humidity 89%
Rainfall 0.00 in
Snow Depth Not available.
UV 1 out of 12
Pollen 7.40 out of 12
Air Quality Not available.
Flu Activity Not available.
METAR KCSM 211753Z AUTO 17014KT 5SM BR OVC005 08/06 A2986 RMK AO2 CIG 004V009 SLP112 T00780061 10078 20056 55016

More Conditions Fewer Conditions

Pressure 29.86 in
Visibility 5.0 miles
Clouds Overcast 500 ft
Windchill 39 °F
Dew Point 43 °F
Humidity 89%
Rainfall 0.00 in
Snow Depth Not available.
UV 1 out of 12
Pollen 7.40 out of 12
Air Quality Not available.
Flu Activity Not available.
METAR KCSM 211753Z AUTO 17014KT 5SM BR OVC005 08/06 A2986 RMK AO2 CIG 004V009 SLP112 T00780061 10078 20056 55016

More Conditions Fewer Conditions

10-Day Weather Forecast

Almanac

Astronomy

Dec. 21, 2014 Rise Set
Actual Time
Civil Twilight
Nautical Twilight
Astronomical Twilight
Moon
Length of Visible Light
Length of Day
Tomorrow will be .
, % of the Moon is Illuminated

Today's Extremes

State Highs State Lows

Community

WunderPhotos

Upload Photos

1,779,451 photos uploaded!

WunderBlogs® & News

Nearby

Air Quality

  Air Quality AQ Index Pollutant
Not available.

Snow Depth

Station Depth Elevation

Earthquake Activity

City Distance Mag. Time & Date
Minimum magnitude displayed is 2.5.

Coastal Water Temperatures

Place Temperature

Nearby Weather Stations